Stations météo

réclame
Mon MeteoGroup
Hinojosa Del Duque, Espagne (8335): Température de l'air & dewpoint: 17.07.2018 13:00:00 - 23.07.2018 13:00:00 (CEST)Hinojosa Del Duque, Espagne (8335): Vitesse du vent & gusts: 17.07.2018 13:00:00 - 23.07.2018 13:00:00 (CEST)Hinojosa Del Duque, Espagne (8335): Direction du vent: 17.07.2018 13:00:00 - 23.07.2018 13:00:00 (CEST)Hinojosa Del Duque, Espagne (8335): reduced air pressure: 17.07.2018 13:00:00 - 23.07.2018 13:00:00 (CEST)Hinojosa Del Duque, Espagne (8335): Quantités de précipitations: 17.07.2018 13:00:00 - 23.07.2018 13:00:00 (CEST)
Date & Time tt [°C] td [°C] ff [km/h] ff [knt] fx [km/h] fx [knt] dd ppp [hPa] rr [mm]
23.07.2018 13:00:00 - - - - - - - - -
23.07.2018 12:00:00 28,9 13,9 8 4 18 10 SW 1013,9 0,0
23.07.2018 11:00:00 27,4 12,2 10 5 20 11 SSW 1014,2 0,0
23.07.2018 10:00:00 26,4 11,3 10 6 17 9 SW 1014,4 0,0
23.07.2018 09:00:00 23,7 11,1 4 2 7 4 SSE 1014,8 0,0
23.07.2018 08:00:00 18,9 10,2 6 3 9 5 SSE 1015,2 -
23.07.2018 07:00:00 17,5 9,4 8 4 8 5 SSE 1015,2 0,0
23.07.2018 06:00:00 18,3 9,7 4 2 9 5 SE 1014,5 0,0
23.07.2018 05:00:00 20,0 10,4 4 2 9 5 SSW 1014,0 0,0
23.07.2018 04:00:00 20,8 10,5 5 3 11 6 SSW 1013,9 0,0
23.07.2018 03:00:00 22,4 11,1 7 4 13 7 SW 1013,7 0,0
23.07.2018 02:00:00 23,1 10,9 9 5 14 8 SW 1013,7 -
23.07.2018 01:00:00 23,3 9,7 8 5 12 7 SW 1013,6 0,0
23.07.2018 00:00:00 24,6 9,7 8 5 11 6 WSW 1012,9 0,0
22.07.2018 23:00:00 25,8 10,0 5 3 16 9 W 1012,4 0,0
22.07.2018 22:00:00 28,4 11,0 5 3 23 12 NW 1011,0 0,0
22.07.2018 21:00:00 31,2 11,6 19 10 27 15 S 1009,4 0,0
22.07.2018 20:00:00 33,9 11,7 10 5 22 12 WSW 1008,3 -
22.07.2018 19:00:00 34,7 12,4 11 6 30 16 W 1007,9 0,0
22.07.2018 18:00:00 34,4 12,7 14 8 26 14 WSW 1008,1 0,0
22.07.2018 17:00:00 34,5 12,7 10 6 36 19 W 1008,3 0,0
22.07.2018 16:00:00 34,3 13,2 5 3 27 15 W 1008,7 0,0
22.07.2018 15:00:00 32,8 13,0 10 6 25 14 SSW 1009,6 0,0
22.07.2018 14:00:00 31,7 13,0 10 6 24 13 SW 1009,9 -
22.07.2018 13:00:00 30,3 13,2 12 7 25 14 W 1010,5 0,0
22.07.2018 12:00:00 28,5 13,2 9 5 19 10 WSW 1011,1 0,0
22.07.2018 11:00:00 26,4 14,5 4 2 8 4 WSW 1011,3 0,0
22.07.2018 10:00:00 23,9 14,0 3 2 6 4 N 1011,8 0,0
22.07.2018 09:00:00 19,7 12,4 0 0 6 4 NW 1012,3 0,0
22.07.2018 08:00:00 17,1 10,9 4 2 9 5 W 1012,7 -
22.07.2018 07:00:00 17,2 10,3 6 3 8 5 SW 1012,2 0,0
22.07.2018 06:00:00 17,5 9,9 6 3 8 4 WSW 1012,1 0,0
22.07.2018 05:00:00 17,9 9,3 4 2 8 4 SW 1012,2 0,0
22.07.2018 04:00:00 18,4 7,1 3 1 11 6 SSW 1012,4 0,0
22.07.2018 03:00:00 20,2 7,8 7 4 14 8 WSW 1012,1 0,0
22.07.2018 02:00:00 20,1 6,1 10 5 14 7 NW 1012,6 -
22.07.2018 01:00:00 21,9 7,0 6 4 9 5 W 1012,1 0,0
22.07.2018 00:00:00 23,1 7,6 8 4 11 6 W 1011,9 0,0
21.07.2018 23:00:00 23,9 8,0 8 5 12 6 WSW 1011,8 0,0
21.07.2018 22:00:00 26,2 8,7 11 6 23 12 NNW 1010,4 0,0
21.07.2018 21:00:00 29,4 11,0 16 9 28 15 N 1009,3 0,0
21.07.2018 20:00:00 31,6 12,4 15 8 25 13 NW 1008,6 -
21.07.2018 19:00:00 32,7 13,9 5 3 30 16 W 1008,6 0,0
21.07.2018 18:00:00 32,4 13,6 10 5 25 14 WNW 1009,2 0,0
21.07.2018 17:00:00 32,1 13,4 16 9 27 15 WNW 1009,4 0,0
21.07.2018 16:00:00 30,4 12,3 4 2 23 12 NNE 1010,5 0,0
21.07.2018 15:00:00 31,5 13,8 8 4 21 11 W 1010,8 0,0
21.07.2018 14:00:00 30,5 14,1 10 5 19 10 WSW 1011,9 -
21.07.2018 13:00:00 28,9 13,9 8 4 15 8 NW 1012,7 0,0
21.07.2018 12:00:00 27,9 15,5 4 2 15 8 W 1013,0 0,0
21.07.2018 11:00:00 25,4 14,8 4 2 11 6 W 1013,5 0,0
21.07.2018 10:00:00 22,8 14,1 3 2 9 5 NNW 1014,2 0,0
21.07.2018 09:00:00 20,3 13,8 5 3 11 6 W 1014,3 0,0
21.07.2018 08:00:00 17,5 12,6 4 2 11 6 W 1014,7 -
21.07.2018 07:00:00 15,8 11,2 5 3 10 5 W 1014,9 0,0
21.07.2018 06:00:00 17,4 11,7 10 5 19 10 W 1014,3 0,0
21.07.2018 05:00:00 17,3 10,6 7 4 14 8 W 1014,1 0,0
21.07.2018 04:00:00 17,9 10,3 8 5 19 11 W 1014,0 0,0
21.07.2018 03:00:00 20,0 10,6 14 8 18 10 W 1013,9 0,0
21.07.2018 02:00:00 20,8 10,5 11 6 22 12 W 1014,1 -
21.07.2018 01:00:00 22,1 10,3 14 8 20 11 WNW 1014,0 0,0
21.07.2018 00:00:00 22,8 9,2 13 7 18 10 WNW 1013,6 0,0
20.07.2018 23:00:00 23,7 8,9 13 7 16 8 WNW 1012,8 0,0
20.07.2018 22:00:00 24,6 8,5 9 5 21 11 WNW 1012,1 0,0
20.07.2018 21:00:00 28,3 10,5 14 7 28 15 NW 1011,2 0,0
20.07.2018 20:00:00 29,9 11,4 18 10 30 16 WNW 1010,7 -
20.07.2018 19:00:00 30,7 11,1 12 7 34 18 WNW 1010,4 0,0
20.07.2018 18:00:00 31,1 12,4 15 8 33 18 W 1010,6 0,0
20.07.2018 17:00:00 31,0 12,8 19 10 35 19 W 1011,0 0,0
20.07.2018 16:00:00 30,9 12,7 15 8 37 20 W 1011,3 0,0
20.07.2018 15:00:00 29,6 13,0 11 6 28 15 W 1012,1 0,0
20.07.2018 14:00:00 28,3 13,5 12 6 23 12 WNW 1012,8 -
20.07.2018 13:00:00 26,9 13,0 9 5 21 11 WNW 1013,6 0,0
20.07.2018 12:00:00 24,9 12,4 7 4 18 10 W 1014,3 0,0
20.07.2018 11:00:00 23,2 13,4 9 5 19 10 WNW 1014,4 0,0
20.07.2018 10:00:00 21,0 13,2 7 4 13 7 W 1015,0 0,0
20.07.2018 09:00:00 19,5 12,7 3 2 7 4 W 1015,0 0,0
20.07.2018 08:00:00 15,6 10,8 5 3 7 4 SW 1015,6 -
20.07.2018 07:00:00 14,0 9,2 5 3 8 4 SSE 1015,8 0,0
20.07.2018 06:00:00 16,2 10,8 7 4 16 9 WSW 1015,2 0,0
20.07.2018 05:00:00 16,5 10,3 10 5 14 8 W 1015,3 0,0
20.07.2018 04:00:00 16,7 9,2 11 6 14 8 W 1015,4 0,0
20.07.2018 03:00:00 17,1 7,1 9 5 14 7 NW 1015,7 0,0
20.07.2018 02:00:00 19,1 8,1 9 5 16 9 W 1015,2 -
20.07.2018 01:00:00 21,1 9,0 10 5 15 8 W 1015,3 0,0
20.07.2018 00:00:00 20,7 8,0 9 5 12 7 W 1015,2 0,0
19.07.2018 23:00:00 22,8 8,1 11 6 18 10 NNW 1014,2 0,0
19.07.2018 22:00:00 25,2 8,7 14 7 24 13 NNW 1012,9 0,0
19.07.2018 21:00:00 28,2 9,4 21 11 34 18 NW 1011,9 0,0
19.07.2018 20:00:00 30,5 9,9 23 12 35 19 NW 1011,0 -
19.07.2018 19:00:00 33,2 9,9 16 9 29 16 W 1010,2 0,0
19.07.2018 18:00:00 34,0 10,5 15 8 30 16 WSW 1010,4 0,0
19.07.2018 17:00:00 33,1 11,0 15 8 29 16 WSW 1010,9 0,0
19.07.2018 16:00:00 32,8 10,8 16 9 28 15 WNW 1011,4 0,0
19.07.2018 15:00:00 32,0 10,0 16 8 27 15 WSW 1012,1 0,0
19.07.2018 14:00:00 31,5 10,8 12 6 27 15 W 1012,6 -
19.07.2018 13:00:00 29,9 9,9 12 6 23 12 W 1013,2 0,0
19.07.2018 12:00:00 27,4 11,8 5 3 16 8 SE 1014,0 0,0
19.07.2018 11:00:00 25,2 13,1 2 1 10 5 ESE 1014,6 0,0
19.07.2018 10:00:00 22,8 13,1 3 2 10 5 WNW 1015,1 0,0
19.07.2018 09:00:00 20,2 12,6 6 3 8 4 NW 1015,3 0,0
19.07.2018 08:00:00 17,7 11,0 4 2 8 4 W 1015,4 -
19.07.2018 07:00:00 15,5 9,6 3 1 9 5 WSW 1015,9 0,0
19.07.2018 06:00:00 16,5 9,4 6 4 11 6 W 1015,7 0,0
19.07.2018 05:00:00 16,7 7,8 8 4 11 6 W 1015,5 0,0
19.07.2018 04:00:00 18,3 6,8 8 4 10 5 WSW 1015,1 0,0
19.07.2018 03:00:00 19,2 7,0 5 3 11 6 WSW 1014,9 0,0
19.07.2018 02:00:00 20,1 7,1 5 3 8 5 W 1014,6 -
19.07.2018 01:00:00 21,1 8,0 3 2 9 5 W 1014,6 0,0
19.07.2018 00:00:00 22,5 8,9 5 3 14 8 W 1014,0 0,0
18.07.2018 23:00:00 23,1 9,2 8 5 10 6 WNW 1013,7 0,0
18.07.2018 22:00:00 25,9 10,9 10 6 22 12 NW 1012,4 0,0
18.07.2018 21:00:00 30,2 10,6 15 8 24 13 W 1011,0 0,0
18.07.2018 20:00:00 32,6 10,6 10 5 30 16 SW 1010,2 -
18.07.2018 19:00:00 33,1 11,0 12 6 29 16 SW 1010,1 0,0
18.07.2018 18:00:00 33,3 11,2 10 6 26 14 SW 1010,4 0,0
18.07.2018 17:00:00 33,1 11,6 11 6 31 17 WSW 1010,8 0,0
18.07.2018 16:00:00 32,9 11,4 10 5 28 15 WSW 1011,1 0,0
18.07.2018 15:00:00 31,4 11,2 12 6 28 15 S 1011,8 0,0
18.07.2018 14:00:00 30,3 10,8 10 5 31 17 SW 1012,5 -
18.07.2018 13:00:00 29,7 11,2 12 6 46 25 SW 1012,9 0,0
18.07.2018 12:00:00 28,3 10,0 10 5 24 13 SW 1013,3 0,0
18.07.2018 11:00:00 26,9 9,7 11 6 20 11 SW 1013,5 0,0
18.07.2018 10:00:00 25,0 9,7 15 8 24 13 WSW 1013,9 0,0
18.07.2018 09:00:00 22,9 9,3 11 6 18 10 WSW 1013,9 0,0
18.07.2018 08:00:00 19,9 8,9 8 5 13 7 SW 1014,1 -
18.07.2018 07:00:00 17,4 7,4 6 3 13 7 S 1014,4 0,0
18.07.2018 06:00:00 19,2 7,6 10 5 15 8 SW 1013,7 0,0
18.07.2018 05:00:00 20,8 7,4 12 6 19 11 SW 1013,0 0,0
18.07.2018 04:00:00 22,1 7,4 11 6 21 12 SW 1012,7 0,0
18.07.2018 03:00:00 22,4 7,0 13 7 24 13 WSW 1012,3 0,0
18.07.2018 02:00:00 23,7 6,1 13 7 24 13 SSW 1011,7 -
18.07.2018 01:00:00 25,0 6,2 16 9 26 14 SSW 1011,4 0,0
18.07.2018 00:00:00 25,4 6,5 9 5 20 11 SW 1011,0 0,0
17.07.2018 23:00:00 26,1 6,7 6 3 13 7 SSW 1010,6 0,0
17.07.2018 22:00:00 28,5 6,5 9 5 18 10 SSW 1009,8 0,0
17.07.2018 21:00:00 32,1 7,7 11 6 23 12 SSW 1008,7 0,0
17.07.2018 20:00:00 33,6 7,6 14 8 24 13 SW 1008,4 -
17.07.2018 19:00:00 34,6 8,4 11 6 26 14 SSW 1008,4 0,0
17.07.2018 18:00:00 35,4 9,0 4 2 26 14 S 1008,7 0,0
17.07.2018 17:00:00 34,7 9,8 13 7 25 13 SW 1009,3 0,0
17.07.2018 16:00:00 34,2 10,8 11 6 26 14 S 1010,2 0,0
17.07.2018 15:00:00 33,2 11,7 5 3 23 12 SSW 1010,8 0,0
17.07.2018 14:00:00 32,3 10,9 6 3 23 13 S 1011,9 -
17.07.2018 13:00:00 31,2 12,1 9 5 20 11 SW 1012,7 0,0

tt = Température de l'air
td = dewpoint
ff = Vitesse du vent
fx = gusts
dd = Direction du vent
ppp = reduced air pressure
rr = Quantités de précipitations

stations d'obs. à proximité